sensor_id;sensor_type;location;lat;lon;timestamp;P1;durP1;ratioP1;P2;durP2;ratioP2
6356;SDS011;3211;53.452;-2.264;2023-10-19T00:01:54;1.00;;;0.90;;
6356;SDS011;3211;53.452;-2.264;2023-10-19T00:04:23;1.10;;;1.00;;
6356;SDS011;3211;53.452;-2.264;2023-10-19T00:06:49;0.90;;;0.80;;
6356;SDS011;3211;53.452;-2.264;2023-10-19T00:09:16;1.00;;;0.90;;
6356;SDS011;3211;53.452;-2.264;2023-10-19T00:11:42;1.10;;;1.00;;
6356;SDS011;3211;53.452;-2.264;2023-10-19T00:14:10;0.97;;;0.90;;
6356;SDS011;3211;53.452;-2.264;2023-10-19T00:16:41;1.03;;;0.90;;
6356;SDS011;3211;53.452;-2.264;2023-10-19T00:19:16;1.20;;;0.93;;
6356;SDS011;3211;53.452;-2.264;2023-10-19T00:21:45;1.60;;;1.00;;
6356;SDS011;3211;53.452;-2.264;2023-10-19T00:24:20;1.87;;;0.90;;
6356;SDS011;3211;53.452;-2.264;2023-10-19T00:26:48;1.00;;;0.90;;
6356;SDS011;3211;53.452;-2.264;2023-10-19T00:29:20;1.00;;;0.90;;
6356;SDS011;3211;53.452;-2.264;2023-10-19T00:31:58;1.20;;;1.00;;
6356;SDS011;3211;53.452;-2.264;2023-10-19T00:34:25;0.80;;;0.80;;
6356;SDS011;3211;53.452;-2.264;2023-10-19T00:36:54;1.07;;;0.97;;
6356;SDS011;3211;53.452;-2.264;2023-10-19T00:39:21;1.00;;;0.90;;
6356;SDS011;3211;53.452;-2.264;2023-10-19T00:41:48;1.00;;;0.90;;
6356;SDS011;3211;53.452;-2.264;2023-10-19T00:44:20;1.83;;;0.90;;
6356;SDS011;3211;53.452;-2.264;2023-10-19T00:47:00;1.63;;;1.07;;
6356;SDS011;3211;53.452;-2.264;2023-10-19T00:49:28;1.00;;;0.90;;
6356;SDS011;3211;53.452;-2.264;2023-10-19T00:51:56;4.40;;;0.90;;
6356;SDS011;3211;53.452;-2.264;2023-10-19T00:54:36;1.40;;;0.90;;
6356;SDS011;3211;53.452;-2.264;2023-10-19T00:57:07;1.00;;;0.90;;
6356;SDS011;3211;53.452;-2.264;2023-10-19T00:59:37;1.57;;;1.00;;
6356;SDS011;3211;53.452;-2.264;2023-10-19T01:02:08;1.00;;;0.90;;
6356;SDS011;3211;53.452;-2.264;2023-10-19T01:04:46;1.00;;;0.90;;
6356;SDS011;3211;53.452;-2.264;2023-10-19T01:07:21;4.13;;;0.90;;
6356;SDS011;3211;53.452;-2.264;2023-10-19T01:09:53;1.10;;;1.00;;
6356;SDS011;3211;53.452;-2.264;2023-10-19T01:12:22;1.00;;;0.90;;
6356;SDS011;3211;53.452;-2.264;2023-10-19T01:15:03;1.30;;;0.90;;
6356;SDS011;3211;53.452;-2.264;2023-10-19T01:17:32;0.90;;;0.80;;
6356;SDS011;3211;53.452;-2.264;2023-10-19T01:20:04;1.00;;;0.90;;
6356;SDS011;3211;53.452;-2.264;2023-10-19T01:22:44;1.87;;;1.07;;
6356;SDS011;3211;53.452;-2.264;2023-10-19T01:25:15;1.00;;;0.90;;
6356;SDS011;3211;53.452;-2.264;2023-10-19T01:27:43;1.10;;;1.00;;
6356;SDS011;3211;53.452;-2.264;2023-10-19T01:30:10;1.10;;;1.00;;
6356;SDS011;3211;53.452;-2.264;2023-10-19T01:32:39;1.37;;;1.07;;
6356;SDS011;3211;53.452;-2.264;2023-10-19T01:35:07;1.87;;;0.90;;
6356;SDS011;3211;53.452;-2.264;2023-10-19T01:37:36;1.00;;;0.90;;
6356;SDS011;3211;53.452;-2.264;2023-10-19T01:40:05;0.93;;;0.83;;
6356;SDS011;3211;53.452;-2.264;2023-10-19T01:42:33;1.20;;;0.93;;
6356;SDS011;3211;53.452;-2.264;2023-10-19T01:44:59;1.00;;;0.90;;
6356;SDS011;3211;53.452;-2.264;2023-10-19T01:47:26;1.00;;;0.90;;
6356;SDS011;3211;53.452;-2.264;2023-10-19T01:49:53;1.40;;;1.00;;
6356;SDS011;3211;53.452;-2.264;2023-10-19T01:52:20;1.53;;;0.90;;
6356;SDS011;3211;53.452;-2.264;2023-10-19T01:54:49;1.97;;;1.10;;
6356;SDS011;3211;53.452;-2.264;2023-10-19T01:57:25;1.00;;;0.90;;
6356;SDS011;3211;53.452;-2.264;2023-10-19T01:59:52;1.30;;;0.93;;
6356;SDS011;3211;53.452;-2.264;2023-10-19T02:02:18;1.10;;;1.00;;
6356;SDS011;3211;53.452;-2.264;2023-10-19T02:04:46;1.10;;;1.00;;
6356;SDS011;3211;53.452;-2.264;2023-10-19T02:07:16;1.17;;;0.87;;
6356;SDS011;3211;53.452;-2.264;2023-10-19T02:09:44;1.13;;;0.90;;
6356;SDS011;3211;53.452;-2.264;2023-10-19T02:12:09;1.17;;;1.07;;
6356;SDS011;3211;53.452;-2.264;2023-10-19T02:14:38;1.03;;;0.90;;
6356;SDS011;3211;53.452;-2.264;2023-10-19T02:17:05;1.73;;;1.00;;
6356;SDS011;3211;53.452;-2.264;2023-10-19T02:19:31;1.10;;;1.00;;
6356;SDS011;3211;53.452;-2.264;2023-10-19T02:21:59;1.40;;;1.00;;
6356;SDS011;3211;53.452;-2.264;2023-10-19T02:24:28;1.17;;;1.03;;
6356;SDS011;3211;53.452;-2.264;2023-10-19T02:26:56;1.97;;;1.00;;
6356;SDS011;3211;53.452;-2.264;2023-10-19T02:29:22;1.03;;;0.93;;
6356;SDS011;3211;53.452;-2.264;2023-10-19T02:31:52;1.20;;;1.10;;
6356;SDS011;3211;53.452;-2.264;2023-10-19T02:34:19;1.20;;;1.10;;
6356;SDS011;3211;53.452;-2.264;2023-10-19T02:36:48;1.20;;;1.10;;
6356;SDS011;3211;53.452;-2.264;2023-10-19T02:39:14;1.07;;;0.97;;
6356;SDS011;3211;53.452;-2.264;2023-10-19T02:41:43;1.10;;;1.00;;
6356;SDS011;3211;53.452;-2.264;2023-10-19T02:44:12;1.20;;;1.10;;
6356;SDS011;3211;53.452;-2.264;2023-10-19T02:46:49;1.10;;;0.90;;
6356;SDS011;3211;53.452;-2.264;2023-10-19T02:49:19;1.13;;;1.00;;
6356;SDS011;3211;53.452;-2.264;2023-10-19T02:51:48;1.00;;;0.90;;
6356;SDS011;3211;53.452;-2.264;2023-10-19T02:54:15;1.10;;;1.00;;
6356;SDS011;3211;53.452;-2.264;2023-10-19T02:56:45;1.40;;;1.23;;
6356;SDS011;3211;53.452;-2.264;2023-10-19T02:59:13;1.10;;;1.00;;
6356;SDS011;3211;53.452;-2.264;2023-10-19T03:01:41;1.20;;;1.10;;
6356;SDS011;3211;53.452;-2.264;2023-10-19T03:04:09;1.17;;;1.07;;
6356;SDS011;3211;53.452;-2.264;2023-10-19T03:06:38;1.30;;;1.20;;
6356;SDS011;3211;53.452;-2.264;2023-10-19T03:09:06;1.10;;;1.00;;
6356;SDS011;3211;53.452;-2.264;2023-10-19T03:11:38;1.30;;;1.10;;
6356;SDS011;3211;53.452;-2.264;2023-10-19T03:14:06;1.90;;;1.17;;
6356;SDS011;3211;53.452;-2.264;2023-10-19T03:16:33;1.53;;;1.23;;
6356;SDS011;3211;53.452;-2.264;2023-10-19T03:19:01;1.13;;;0.93;;
6356;SDS011;3211;53.452;-2.264;2023-10-19T03:21:27;1.83;;;1.20;;
6356;SDS011;3211;53.452;-2.264;2023-10-19T03:23:59;1.10;;;1.00;;
6356;SDS011;3211;53.452;-2.264;2023-10-19T03:26:37;1.30;;;1.00;;
6356;SDS011;3211;53.452;-2.264;2023-10-19T03:29:08;1.33;;;1.23;;
6356;SDS011;3211;53.452;-2.264;2023-10-19T03:31:37;1.30;;;1.20;;
6356;SDS011;3211;53.452;-2.264;2023-10-19T03:34:08;2.60;;;1.23;;
6356;SDS011;3211;53.452;-2.264;2023-10-19T03:36:36;1.50;;;1.10;;
6356;SDS011;3211;53.452;-2.264;2023-10-19T03:39:04;1.13;;;1.03;;
6356;SDS011;3211;53.452;-2.264;2023-10-19T03:41:36;1.43;;;1.33;;
6356;SDS011;3211;53.452;-2.264;2023-10-19T03:44:06;1.63;;;1.50;;
6356;SDS011;3211;53.452;-2.264;2023-10-19T03:46:38;2.50;;;1.47;;
6356;SDS011;3211;53.452;-2.264;2023-10-19T03:49:18;2.73;;;2.27;;
6356;SDS011;3211;53.452;-2.264;2023-10-19T03:51:45;3.80;;;2.30;;
6356;SDS011;3211;53.452;-2.264;2023-10-19T03:54:26;2.20;;;2.00;;
6356;SDS011;3211;53.452;-2.264;2023-10-19T03:56:53;3.33;;;2.50;;
6356;SDS011;3211;53.452;-2.264;2023-10-19T03:59:22;2.90;;;2.27;;
6356;SDS011;3211;53.452;-2.264;2023-10-19T04:01:54;3.20;;;2.90;;
6356;SDS011;3211;53.452;-2.264;2023-10-19T04:04:24;2.67;;;2.47;;
6356;SDS011;3211;53.452;-2.264;2023-10-19T04:06:54;3.30;;;2.90;;
6356;SDS011;3211;53.452;-2.264;2023-10-19T04:09:23;2.87;;;2.37;;
6356;SDS011;3211;53.452;-2.264;2023-10-19T04:11:55;3.10;;;2.80;;
6356;SDS011;3211;53.452;-2.264;2023-10-19T04:14:22;5.50;;;3.17;;
6356;SDS011;3211;53.452;-2.264;2023-10-19T04:16:50;3.60;;;3.27;;
6356;SDS011;3211;53.452;-2.264;2023-10-19T04:19:17;5.90;;;3.90;;
6356;SDS011;3211;53.452;-2.264;2023-10-19T04:21:43;3.97;;;3.57;;
6356;SDS011;3211;53.452;-2.264;2023-10-19T04:24:12;4.37;;;3.43;;
6356;SDS011;3211;53.452;-2.264;2023-10-19T04:26:39;4.43;;;3.67;;
6356;SDS011;3211;53.452;-2.264;2023-10-19T04:29:09;4.30;;;3.67;;
6356;SDS011;3211;53.452;-2.264;2023-10-19T04:31:36;4.93;;;3.90;;
6356;SDS011;3211;53.452;-2.264;2023-10-19T04:34:12;6.90;;;3.97;;
6356;SDS011;3211;53.452;-2.264;2023-10-19T04:36:41;6.80;;;4.40;;
6356;SDS011;3211;53.452;-2.264;2023-10-19T04:39:08;5.77;;;4.53;;
6356;SDS011;3211;53.452;-2.264;2023-10-19T04:41:39;4.73;;;3.83;;
6356;SDS011;3211;53.452;-2.264;2023-10-19T04:44:06;3.83;;;3.37;;
6356;SDS011;3211;53.452;-2.264;2023-10-19T04:46:35;5.60;;;3.60;;
6356;SDS011;3211;53.452;-2.264;2023-10-19T04:49:02;5.70;;;4.00;;
6356;SDS011;3211;53.452;-2.264;2023-10-19T04:51:29;5.43;;;3.80;;
6356;SDS011;3211;53.452;-2.264;2023-10-19T04:53:56;5.70;;;4.30;;
6356;SDS011;3211;53.452;-2.264;2023-10-19T04:56:23;5.80;;;4.03;;
6356;SDS011;3211;53.452;-2.264;2023-10-19T04:58:50;7.20;;;4.40;;
6356;SDS011;3211;53.452;-2.264;2023-10-19T05:01:19;5.00;;;3.97;;
6356;SDS011;3211;53.452;-2.264;2023-10-19T05:03:46;4.13;;;3.70;;
6356;SDS011;3211;53.452;-2.264;2023-10-19T05:06:13;6.17;;;4.23;;
6356;SDS011;3211;53.452;-2.264;2023-10-19T05:08:40;5.60;;;4.07;;
6356;SDS011;3211;53.452;-2.264;2023-10-19T05:11:07;4.07;;;3.40;;
6356;SDS011;3211;53.452;-2.264;2023-10-19T05:13:35;6.53;;;4.30;;
6356;SDS011;3211;53.452;-2.264;2023-10-19T05:16:02;4.37;;;3.87;;
6356;SDS011;3211;53.452;-2.264;2023-10-19T05:18:30;5.33;;;3.33;;
6356;SDS011;3211;53.452;-2.264;2023-10-19T05:20:57;5.40;;;3.60;;
6356;SDS011;3211;53.452;-2.264;2023-10-19T05:23:24;4.93;;;3.50;;
6356;SDS011;3211;53.452;-2.264;2023-10-19T05:25:52;4.40;;;3.47;;
6356;SDS011;3211;53.452;-2.264;2023-10-19T05:28:19;5.80;;;3.60;;
6356;SDS011;3211;53.452;-2.264;2023-10-19T05:30:47;5.13;;;4.20;;
6356;SDS011;3211;53.452;-2.264;2023-10-19T05:33:15;5.20;;;3.73;;
6356;SDS011;3211;53.452;-2.264;2023-10-19T05:35:43;4.43;;;3.67;;
6356;SDS011;3211;53.452;-2.264;2023-10-19T05:38:11;5.57;;;3.40;;
6356;SDS011;3211;53.452;-2.264;2023-10-19T05:40:38;3.90;;;3.20;;
6356;SDS011;3211;53.452;-2.264;2023-10-19T05:43:08;3.63;;;3.10;;
6356;SDS011;3211;53.452;-2.264;2023-10-19T05:45:36;3.13;;;2.67;;
6356;SDS011;3211;53.452;-2.264;2023-10-19T05:48:04;4.17;;;2.80;;
6356;SDS011;3211;53.452;-2.264;2023-10-19T05:50:32;2.77;;;2.33;;
6356;SDS011;3211;53.452;-2.264;2023-10-19T05:53:02;3.40;;;2.67;;
6356;SDS011;3211;53.452;-2.264;2023-10-19T05:55:30;2.60;;;2.40;;
6356;SDS011;3211;53.452;-2.264;2023-10-19T05:57:57;2.67;;;2.30;;
6356;SDS011;3211;53.452;-2.264;2023-10-19T06:00:25;2.77;;;2.10;;
6356;SDS011;3211;53.452;-2.264;2023-10-19T06:02:52;2.40;;;2.10;;
6356;SDS011;3211;53.452;-2.264;2023-10-19T06:05:19;1.90;;;1.77;;
6356;SDS011;3211;53.452;-2.264;2023-10-19T06:07:47;12.90;;;2.13;;
6356;SDS011;3211;53.452;-2.264;2023-10-19T06:10:16;2.70;;;2.00;;
6356;SDS011;3211;53.452;-2.264;2023-10-19T06:12:45;2.43;;;1.70;;
6356;SDS011;3211;53.452;-2.264;2023-10-19T06:15:13;1.70;;;1.57;;
6356;SDS011;3211;53.452;-2.264;2023-10-19T06:17:42;2.63;;;1.73;;
6356;SDS011;3211;53.452;-2.264;2023-10-19T06:20:12;1.53;;;1.43;;
6356;SDS011;3211;53.452;-2.264;2023-10-19T06:22:49;1.60;;;1.50;;
6356;SDS011;3211;53.452;-2.264;2023-10-19T06:25:18;2.30;;;1.33;;
6356;SDS011;3211;53.452;-2.264;2023-10-19T06:27:46;1.60;;;1.50;;
6356;SDS011;3211;53.452;-2.264;2023-10-19T06:30:14;3.40;;;1.70;;
6356;SDS011;3211;53.452;-2.264;2023-10-19T06:32:47;1.30;;;1.20;;
6356;SDS011;3211;53.452;-2.264;2023-10-19T06:35:15;3.83;;;1.60;;
6356;SDS011;3211;53.452;-2.264;2023-10-19T06:37:43;1.50;;;1.33;;
6356;SDS011;3211;53.452;-2.264;2023-10-19T06:40:10;1.57;;;1.47;;
6356;SDS011;3211;53.452;-2.264;2023-10-19T06:42:41;4.20;;;1.53;;
6356;SDS011;3211;53.452;-2.264;2023-10-19T06:45:09;1.53;;;1.43;;
6356;SDS011;3211;53.452;-2.264;2023-10-19T06:47:39;1.63;;;1.53;;
6356;SDS011;3211;53.452;-2.264;2023-10-19T06:50:06;1.83;;;1.63;;
6356;SDS011;3211;53.452;-2.264;2023-10-19T06:52:35;7.67;;;1.70;;
6356;SDS011;3211;53.452;-2.264;2023-10-19T06:55:03;1.63;;;1.53;;
6356;SDS011;3211;53.452;-2.264;2023-10-19T06:57:30;1.50;;;1.40;;
6356;SDS011;3211;53.452;-2.264;2023-10-19T06:59:59;1.90;;;1.70;;
6356;SDS011;3211;53.452;-2.264;2023-10-19T07:02:39;2.40;;;1.67;;
6356;SDS011;3211;53.452;-2.264;2023-10-19T07:05:07;2.13;;;1.40;;
6356;SDS011;3211;53.452;-2.264;2023-10-19T07:07:35;1.80;;;1.70;;
6356;SDS011;3211;53.452;-2.264;2023-10-19T07:10:05;2.17;;;1.53;;
6356;SDS011;3211;53.452;-2.264;2023-10-19T07:12:33;2.80;;;1.70;;
6356;SDS011;3211;53.452;-2.264;2023-10-19T07:15:01;1.50;;;1.40;;
6356;SDS011;3211;53.452;-2.264;2023-10-19T07:17:32;2.00;;;1.70;;
6356;SDS011;3211;53.452;-2.264;2023-10-19T07:19:59;3.47;;;1.70;;
6356;SDS011;3211;53.452;-2.264;2023-10-19T07:22:28;1.70;;;1.60;;
6356;SDS011;3211;53.452;-2.264;2023-10-19T07:24:56;3.10;;;1.60;;
6356;SDS011;3211;53.452;-2.264;2023-10-19T07:27:23;2.13;;;1.60;;
6356;SDS011;3211;53.452;-2.264;2023-10-19T07:29:53;2.23;;;1.57;;
6356;SDS011;3211;53.452;-2.264;2023-10-19T07:32:21;2.30;;;2.10;;
6356;SDS011;3211;53.452;-2.264;2023-10-19T07:34:48;2.40;;;1.87;;
6356;SDS011;3211;53.452;-2.264;2023-10-19T07:37:15;1.93;;;1.67;;
6356;SDS011;3211;53.452;-2.264;2023-10-19T07:39:44;2.90;;;1.77;;
6356;SDS011;3211;53.452;-2.264;2023-10-19T07:42:12;1.70;;;1.60;;
6356;SDS011;3211;53.452;-2.264;2023-10-19T07:44:39;2.27;;;1.80;;
6356;SDS011;3211;53.452;-2.264;2023-10-19T07:47:06;3.77;;;1.80;;
6356;SDS011;3211;53.452;-2.264;2023-10-19T07:49:35;2.60;;;1.90;;
6356;SDS011;3211;53.452;-2.264;2023-10-19T07:52:03;3.83;;;2.00;;
6356;SDS011;3211;53.452;-2.264;2023-10-19T07:54:31;3.20;;;1.97;;
6356;SDS011;3211;53.452;-2.264;2023-10-19T07:56:58;2.60;;;1.77;;
6356;SDS011;3211;53.452;-2.264;2023-10-19T07:59:28;2.80;;;2.13;;
6356;SDS011;3211;53.452;-2.264;2023-10-19T08:01:55;2.90;;;2.30;;
6356;SDS011;3211;53.452;-2.264;2023-10-19T08:04:22;2.20;;;2.00;;
6356;SDS011;3211;53.452;-2.264;2023-10-19T08:06:51;2.70;;;1.90;;
6356;SDS011;3211;53.452;-2.264;2023-10-19T08:09:18;2.47;;;1.70;;
6356;SDS011;3211;53.452;-2.264;2023-10-19T08:11:48;3.83;;;1.83;;
6356;SDS011;3211;53.452;-2.264;2023-10-19T08:14:15;2.77;;;1.70;;
6356;SDS011;3211;53.452;-2.264;2023-10-19T08:16:42;1.57;;;1.30;;
6356;SDS011;3211;53.452;-2.264;2023-10-19T08:19:09;2.23;;;1.87;;
6356;SDS011;3211;53.452;-2.264;2023-10-19T08:21:37;2.00;;;1.20;;
6356;SDS011;3211;53.452;-2.264;2023-10-19T08:24:06;3.53;;;1.63;;
6356;SDS011;3211;53.452;-2.264;2023-10-19T08:26:38;4.73;;;1.73;;
6356;SDS011;3211;53.452;-2.264;2023-10-19T08:29:06;2.77;;;1.80;;
6356;SDS011;3211;53.452;-2.264;2023-10-19T08:31:38;2.33;;;1.53;;
6356;SDS011;3211;53.452;-2.264;2023-10-19T08:34:05;4.83;;;1.47;;
6356;SDS011;3211;53.452;-2.264;2023-10-19T08:36:34;2.53;;;1.60;;
6356;SDS011;3211;53.452;-2.264;2023-10-19T08:39:02;2.13;;;1.60;;
6356;SDS011;3211;53.452;-2.264;2023-10-19T08:41:32;2.50;;;1.63;;
6356;SDS011;3211;53.452;-2.264;2023-10-19T08:44:02;1.73;;;1.50;;
6356;SDS011;3211;53.452;-2.264;2023-10-19T08:46:29;1.33;;;1.23;;
6356;SDS011;3211;53.452;-2.264;2023-10-19T08:48:57;1.30;;;1.13;;
6356;SDS011;3211;53.452;-2.264;2023-10-19T08:51:25;2.20;;;1.50;;
6356;SDS011;3211;53.452;-2.264;2023-10-19T08:53:54;1.60;;;1.43;;
6356;SDS011;3211;53.452;-2.264;2023-10-19T08:56:21;1.43;;;1.20;;
6356;SDS011;3211;53.452;-2.264;2023-10-19T08:58:52;1.90;;;1.10;;
6356;SDS011;3211;53.452;-2.264;2023-10-19T09:01:19;1.57;;;1.20;;
6356;SDS011;3211;53.452;-2.264;2023-10-19T09:03:49;1.13;;;1.03;;
6356;SDS011;3211;53.452;-2.264;2023-10-19T09:06:17;1.10;;;1.00;;
6356;SDS011;3211;53.452;-2.264;2023-10-19T09:08:46;1.03;;;0.93;;
6356;SDS011;3211;53.452;-2.264;2023-10-19T09:11:14;1.77;;;1.07;;
6356;SDS011;3211;53.452;-2.264;2023-10-19T09:13:44;1.30;;;1.20;;
6356;SDS011;3211;53.452;-2.264;2023-10-19T09:16:13;1.33;;;1.03;;
6356;SDS011;3211;53.452;-2.264;2023-10-19T09:18:41;1.13;;;1.03;;
6356;SDS011;3211;53.452;-2.264;2023-10-19T09:21:08;1.23;;;1.10;;
6356;SDS011;3211;53.452;-2.264;2023-10-19T09:23:38;2.80;;;1.13;;
6356;SDS011;3211;53.452;-2.264;2023-10-19T09:26:05;1.60;;;1.10;;
6356;SDS011;3211;53.452;-2.264;2023-10-19T09:28:36;4.27;;;1.30;;
6356;SDS011;3211;53.452;-2.264;2023-10-19T09:31:04;4.40;;;1.40;;
6356;SDS011;3211;53.452;-2.264;2023-10-19T09:33:36;3.20;;;1.47;;
6356;SDS011;3211;53.452;-2.264;2023-10-19T09:36:05;2.40;;;1.50;;
6356;SDS011;3211;53.452;-2.264;2023-10-19T09:38:38;4.03;;;1.67;;
6356;SDS011;3211;53.452;-2.264;2023-10-19T09:41:09;3.23;;;1.40;;
6356;SDS011;3211;53.452;-2.264;2023-10-19T09:43:41;3.13;;;1.40;;
6356;SDS011;3211;53.452;-2.264;2023-10-19T09:46:10;1.60;;;1.30;;
6356;SDS011;3211;53.452;-2.264;2023-10-19T09:48:40;2.50;;;1.40;;
6356;SDS011;3211;53.452;-2.264;2023-10-19T09:51:09;4.50;;;1.33;;
6356;SDS011;3211;53.452;-2.264;2023-10-19T09:53:37;4.53;;;1.37;;
6356;SDS011;3211;53.452;-2.264;2023-10-19T09:56:06;2.77;;;1.23;;
6356;SDS011;3211;53.452;-2.264;2023-10-19T09:58:38;2.53;;;1.40;;
6356;SDS011;3211;53.452;-2.264;2023-10-19T10:01:10;4.13;;;1.20;;
6356;SDS011;3211;53.452;-2.264;2023-10-19T10:03:46;4.57;;;1.70;;
6356;SDS011;3211;53.452;-2.264;2023-10-19T10:06:14;2.50;;;1.30;;
6356;SDS011;3211;53.452;-2.264;2023-10-19T10:08:45;2.83;;;1.60;;
6356;SDS011;3211;53.452;-2.264;2023-10-19T10:11:15;1.93;;;1.43;;
6356;SDS011;3211;53.452;-2.264;2023-10-19T10:13:46;10.50;;;2.50;;
6356;SDS011;3211;53.452;-2.264;2023-10-19T10:16:17;3.10;;;2.00;;
6356;SDS011;3211;53.452;-2.264;2023-10-19T10:18:47;2.47;;;1.50;;
6356;SDS011;3211;53.452;-2.264;2023-10-19T10:21:16;2.27;;;1.30;;
6356;SDS011;3211;53.452;-2.264;2023-10-19T10:23:47;3.50;;;1.17;;
6356;SDS011;3211;53.452;-2.264;2023-10-19T10:26:16;1.90;;;1.50;;
6356;SDS011;3211;53.452;-2.264;2023-10-19T10:28:46;4.90;;;1.40;;
6356;SDS011;3211;53.452;-2.264;2023-10-19T10:31:14;8.33;;;1.30;;
6356;SDS011;3211;53.452;-2.264;2023-10-19T10:33:48;1.50;;;1.30;;
6356;SDS011;3211;53.452;-2.264;2023-10-19T10:36:16;4.53;;;1.40;;
6356;SDS011;3211;53.452;-2.264;2023-10-19T10:38:45;2.03;;;1.30;;
6356;SDS011;3211;53.452;-2.264;2023-10-19T10:41:19;4.50;;;1.70;;
6356;SDS011;3211;53.452;-2.264;2023-10-19T10:43:50;2.90;;;1.30;;
6356;SDS011;3211;53.452;-2.264;2023-10-19T10:46:19;5.00;;;1.43;;
6356;SDS011;3211;53.452;-2.264;2023-10-19T10:48:49;6.40;;;1.50;;
6356;SDS011;3211;53.452;-2.264;2023-10-19T10:51:20;4.20;;;2.37;;
6356;SDS011;3211;53.452;-2.264;2023-10-19T10:53:49;6.17;;;1.70;;
6356;SDS011;3211;53.452;-2.264;2023-10-19T10:56:17;2.60;;;1.73;;
6356;SDS011;3211;53.452;-2.264;2023-10-19T10:58:45;2.40;;;1.47;;
6356;SDS011;3211;53.452;-2.264;2023-10-19T11:01:12;2.63;;;2.40;;
6356;SDS011;3211;53.452;-2.264;2023-10-19T11:03:39;2.90;;;1.43;;
6356;SDS011;3211;53.452;-2.264;2023-10-19T11:06:08;3.50;;;1.40;;
6356;SDS011;3211;53.452;-2.264;2023-10-19T11:08:36;2.00;;;1.27;;
6356;SDS011;3211;53.452;-2.264;2023-10-19T11:11:05;4.17;;;1.40;;
6356;SDS011;3211;53.452;-2.264;2023-10-19T11:13:35;6.50;;;2.00;;
6356;SDS011;3211;53.452;-2.264;2023-10-19T11:16:04;4.47;;;1.80;;
6356;SDS011;3211;53.452;-2.264;2023-10-19T11:18:33;4.70;;;1.97;;
6356;SDS011;3211;53.452;-2.264;2023-10-19T11:21:06;8.17;;;1.40;;
6356;SDS011;3211;53.452;-2.264;2023-10-19T11:23:40;2.57;;;1.60;;
6356;SDS011;3211;53.452;-2.264;2023-10-19T11:26:08;7.27;;;2.10;;
6356;SDS011;3211;53.452;-2.264;2023-10-19T11:28:35;2.90;;;1.57;;
6356;SDS011;3211;53.452;-2.264;2023-10-19T11:31:14;5.80;;;2.30;;
6356;SDS011;3211;53.452;-2.264;2023-10-19T11:33:43;2.60;;;1.70;;
6356;SDS011;3211;53.452;-2.264;2023-10-19T11:36:12;3.13;;;1.53;;
6356;SDS011;3211;53.452;-2.264;2023-10-19T11:38:40;3.90;;;1.60;;
6356;SDS011;3211;53.452;-2.264;2023-10-19T11:41:07;4.10;;;1.40;;
6356;SDS011;3211;53.452;-2.264;2023-10-19T11:43:34;1.80;;;1.57;;
6356;SDS011;3211;53.452;-2.264;2023-10-19T11:46:02;3.83;;;1.57;;
6356;SDS011;3211;53.452;-2.264;2023-10-19T11:48:30;4.17;;;1.60;;
6356;SDS011;3211;53.452;-2.264;2023-10-19T11:50:58;4.33;;;1.87;;
6356;SDS011;3211;53.452;-2.264;2023-10-19T11:53:28;4.53;;;1.40;;
6356;SDS011;3211;53.452;-2.264;2023-10-19T11:55:58;7.17;;;2.10;;
6356;SDS011;3211;53.452;-2.264;2023-10-19T11:58:25;8.17;;;1.93;;
6356;SDS011;3211;53.452;-2.264;2023-10-19T12:00:52;8.20;;;1.90;;
6356;SDS011;3211;53.452;-2.264;2023-10-19T12:03:20;3.80;;;1.50;;
6356;SDS011;3211;53.452;-2.264;2023-10-19T12:05:47;2.17;;;1.40;;
6356;SDS011;3211;53.452;-2.264;2023-10-19T12:08:14;7.47;;;1.90;;
6356;SDS011;3211;53.452;-2.264;2023-10-19T12:10:42;3.50;;;1.60;;
6356;SDS011;3211;53.452;-2.264;2023-10-19T12:13:09;3.83;;;1.47;;
6356;SDS011;3211;53.452;-2.264;2023-10-19T12:15:37;8.60;;;2.13;;
6356;SDS011;3211;53.452;-2.264;2023-10-19T12:18:04;3.33;;;1.50;;
6356;SDS011;3211;53.452;-2.264;2023-10-19T12:20:33;2.60;;;1.27;;
6356;SDS011;3211;53.452;-2.264;2023-10-19T12:23:00;4.27;;;1.80;;
6356;SDS011;3211;53.452;-2.264;2023-10-19T12:25:30;2.57;;;1.60;;
6356;SDS011;3211;53.452;-2.264;2023-10-19T12:27:58;3.07;;;1.60;;
6356;SDS011;3211;53.452;-2.264;2023-10-19T12:30:25;6.13;;;1.50;;
6356;SDS011;3211;53.452;-2.264;2023-10-19T12:32:59;5.13;;;1.70;;
6356;SDS011;3211;53.452;-2.264;2023-10-19T12:35:27;6.33;;;1.70;;
6356;SDS011;3211;53.452;-2.264;2023-10-19T12:38:09;11.17;;;2.50;;
6356;SDS011;3211;53.452;-2.264;2023-10-19T12:40:41;2.40;;;1.33;;
6356;SDS011;3211;53.452;-2.264;2023-10-19T12:43:10;9.20;;;1.90;;
6356;SDS011;3211;53.452;-2.264;2023-10-19T12:45:37;3.83;;;3.20;;
6356;SDS011;3211;53.452;-2.264;2023-10-19T12:48:05;4.27;;;2.23;;
6356;SDS011;3211;53.452;-2.264;2023-10-19T12:50:34;6.00;;;1.93;;
6356;SDS011;3211;53.452;-2.264;2023-10-19T12:53:01;2.57;;;1.60;;
6356;SDS011;3211;53.452;-2.264;2023-10-19T12:55:28;5.03;;;1.80;;
6356;SDS011;3211;53.452;-2.264;2023-10-19T12:57:56;4.93;;;1.53;;
6356;SDS011;3211;53.452;-2.264;2023-10-19T13:00:27;2.00;;;1.20;;
6356;SDS011;3211;53.452;-2.264;2023-10-19T13:02:55;3.10;;;1.40;;
6356;SDS011;3211;53.452;-2.264;2023-10-19T13:05:26;2.03;;;1.27;;
6356;SDS011;3211;53.452;-2.264;2023-10-19T13:07:54;2.50;;;1.57;;
6356;SDS011;3211;53.452;-2.264;2023-10-19T13:10:23;2.97;;;1.30;;
6356;SDS011;3211;53.452;-2.264;2023-10-19T13:12:57;2.17;;;1.30;;
6356;SDS011;3211;53.452;-2.264;2023-10-19T13:15:29;2.83;;;1.43;;
6356;SDS011;3211;53.452;-2.264;2023-10-19T13:17:57;3.30;;;1.50;;
6356;SDS011;3211;53.452;-2.264;2023-10-19T13:20:25;3.27;;;1.67;;
6356;SDS011;3211;53.452;-2.264;2023-10-19T13:22:53;3.67;;;1.50;;
6356;SDS011;3211;53.452;-2.264;2023-10-19T13:25:21;5.70;;;1.93;;
6356;SDS011;3211;53.452;-2.264;2023-10-19T13:28:04;3.93;;;1.53;;
6356;SDS011;3211;53.452;-2.264;2023-10-19T13:30:39;3.73;;;1.73;;
6356;SDS011;3211;53.452;-2.264;2023-10-19T13:33:08;5.50;;;1.80;;
6356;SDS011;3211;53.452;-2.264;2023-10-19T13:35:36;2.50;;;1.40;;
6356;SDS011;3211;53.452;-2.264;2023-10-19T13:38:04;6.60;;;1.93;;
6356;SDS011;3211;53.452;-2.264;2023-10-19T13:40:33;4.13;;;1.70;;
6356;SDS011;3211;53.452;-2.264;2023-10-19T13:43:01;4.90;;;1.80;;
6356;SDS011;3211;53.452;-2.264;2023-10-19T13:45:30;3.77;;;1.87;;
6356;SDS011;3211;53.452;-2.264;2023-10-19T13:48:00;3.70;;;1.73;;
6356;SDS011;3211;53.452;-2.264;2023-10-19T13:50:28;10.40;;;2.03;;
6356;SDS011;3211;53.452;-2.264;2023-10-19T13:52:55;3.07;;;1.63;;
6356;SDS011;3211;53.452;-2.264;2023-10-19T13:55:22;2.27;;;1.33;;
6356;SDS011;3211;53.452;-2.264;2023-10-19T13:57:49;5.57;;;1.60;;
6356;SDS011;3211;53.452;-2.264;2023-10-19T14:00:17;1.70;;;1.30;;
6356;SDS011;3211;53.452;-2.264;2023-10-19T14:02:49;3.30;;;1.50;;
6356;SDS011;3211;53.452;-2.264;2023-10-19T14:05:17;2.40;;;1.53;;
6356;SDS011;3211;53.452;-2.264;2023-10-19T14:07:45;5.73;;;1.70;;
6356;SDS011;3211;53.452;-2.264;2023-10-19T14:10:13;3.77;;;1.73;;
6356;SDS011;3211;53.452;-2.264;2023-10-19T14:12:41;2.83;;;1.40;;
6356;SDS011;3211;53.452;-2.264;2023-10-19T14:15:12;5.23;;;1.80;;
6356;SDS011;3211;53.452;-2.264;2023-10-19T14:17:40;8.53;;;1.63;;
6356;SDS011;3211;53.452;-2.264;2023-10-19T14:20:08;2.23;;;1.33;;
6356;SDS011;3211;53.452;-2.264;2023-10-19T14:22:39;4.33;;;1.53;;
6356;SDS011;3211;53.452;-2.264;2023-10-19T14:25:07;5.30;;;1.57;;
6356;SDS011;3211;53.452;-2.264;2023-10-19T14:27:37;6.47;;;2.57;;
6356;SDS011;3211;53.452;-2.264;2023-10-19T14:30:07;2.33;;;1.40;;
6356;SDS011;3211;53.452;-2.264;2023-10-19T14:32:36;2.73;;;1.77;;
6356;SDS011;3211;53.452;-2.264;2023-10-19T14:35:04;3.07;;;1.23;;
6356;SDS011;3211;53.452;-2.264;2023-10-19T14:37:35;3.33;;;1.77;;
6356;SDS011;3211;53.452;-2.264;2023-10-19T14:40:06;3.23;;;1.50;;
6356;SDS011;3211;53.452;-2.264;2023-10-19T14:42:35;3.23;;;1.73;;
6356;SDS011;3211;53.452;-2.264;2023-10-19T14:45:07;4.53;;;2.20;;
6356;SDS011;3211;53.452;-2.264;2023-10-19T14:47:36;3.30;;;1.40;;
6356;SDS011;3211;53.452;-2.264;2023-10-19T14:50:06;3.67;;;1.63;;
6356;SDS011;3211;53.452;-2.264;2023-10-19T14:52:38;3.97;;;1.57;;
6356;SDS011;3211;53.452;-2.264;2023-10-19T14:55:08;4.23;;;1.40;;
6356;SDS011;3211;53.452;-2.264;2023-10-19T14:57:36;2.30;;;1.60;;
6356;SDS011;3211;53.452;-2.264;2023-10-19T15:00:04;4.80;;;2.23;;
6356;SDS011;3211;53.452;-2.264;2023-10-19T15:02:40;3.70;;;1.60;;
6356;SDS011;3211;53.452;-2.264;2023-10-19T15:05:08;9.10;;;2.20;;
6356;SDS011;3211;53.452;-2.264;2023-10-19T15:07:39;3.60;;;1.90;;
6356;SDS011;3211;53.452;-2.264;2023-10-19T15:10:10;5.63;;;1.73;;
6356;SDS011;3211;53.452;-2.264;2023-10-19T15:12:38;4.57;;;1.50;;